createdAt,value
2022-07-29T00:00:00.923Z,93.20
2022-07-29T00:02:28.812Z,92.30
2022-07-29T00:04:55.645Z,92.20
2022-07-29T00:07:22.479Z,91.90
2022-07-29T00:09:50.770Z,91.70
2022-07-29T00:12:21.330Z,91.70
2022-07-29T00:14:56.575Z,91.60
2022-07-29T00:17:27.106Z,92.00
2022-07-29T00:19:53.880Z,91.70
2022-07-29T00:22:21.296Z,90.90
2022-07-29T00:24:51.089Z,92.10
2022-07-29T00:27:18.397Z,92.30
2022-07-29T00:29:45.735Z,93.30
2022-07-29T00:32:12.608Z,93.80
2022-07-29T00:34:57.741Z,94.30
2022-07-29T00:37:25.036Z,94.20
2022-07-29T00:39:51.854Z,93.80
2022-07-29T00:42:18.848Z,93.40
2022-07-29T00:44:45.630Z,93.70
2022-07-29T00:47:13.261Z,93.90
2022-07-29T00:49:41.525Z,93.50
2022-07-29T00:52:10.443Z,93.30
2022-07-29T00:54:44.638Z,92.70
2022-07-29T00:57:12.064Z,91.90
2022-07-29T00:59:38.812Z,91.40
2022-07-29T01:02:05.662Z,92.10
2022-07-29T01:04:33.236Z,91.60
2022-07-29T01:07:05.057Z,91.70
2022-07-29T01:09:45.331Z,91.60
2022-07-29T01:12:17.607Z,91.70
2022-07-29T01:14:45.224Z,91.70
2022-07-29T01:17:17.966Z,91.60
2022-07-29T01:20:06.968Z,91.60
2022-07-29T01:23:07.896Z,91.60
2022-07-29T01:26:02.619Z,90.70
2022-07-29T01:28:52.883Z,90.30
2022-07-29T01:32:06.883Z,90.10
2022-07-29T01:34:45.619Z,90.50
2022-07-29T01:37:22.335Z,90.30
2022-07-29T01:39:52.386Z,90.20
2022-07-29T01:42:44.158Z,90.00
2022-07-29T01:45:17.996Z,90.40
2022-07-29T01:47:51.770Z,90.10
2022-07-29T01:50:22.286Z,90.30
2022-07-29T01:53:01.136Z,90.60
2022-07-29T01:55:32.083Z,90.90
2022-07-29T01:58:01.005Z,90.60
2022-07-29T02:00:30.777Z,90.70
2022-07-29T02:02:59.688Z,90.50
2022-07-29T02:05:28.372Z,90.90
2022-07-29T02:07:57.914Z,90.90
2022-07-29T02:10:28.589Z,91.30
2022-07-29T02:12:56.939Z,91.20
2022-07-29T02:15:29.776Z,91.60
2022-07-29T02:18:01.997Z,91.50
2022-07-29T02:20:30.006Z,91.20
2022-07-29T02:22:58.134Z,91.70
2022-07-29T02:25:26.312Z,91.80
2022-07-29T02:28:06.417Z,92.30
2022-07-29T02:30:34.003Z,92.40
2022-07-29T02:33:01.427Z,92.50
2022-07-29T02:35:28.529Z,92.30
2022-07-29T02:38:21.234Z,91.90
2022-07-29T02:40:49.310Z,91.90
2022-07-29T02:43:16.686Z,91.60
2022-07-29T02:45:44.356Z,91.40
2022-07-29T02:48:17.657Z,91.10
2022-07-29T02:50:53.112Z,91.10
2022-07-29T02:53:23.735Z,91.20
2022-07-29T02:55:55.407Z,91.10
2022-07-29T02:58:29.420Z,91.00
2022-07-29T03:01:02.433Z,90.80
2022-07-29T03:03:33.257Z,90.10
2022-07-29T03:06:02.138Z,88.20
2022-07-29T03:08:29.411Z,87.40
2022-07-29T03:10:57.003Z,87.70
2022-07-29T03:13:24.609Z,87.80
2022-07-29T03:15:52.153Z,87.20
2022-07-29T03:18:19.680Z,87.50
2022-07-29T03:20:46.498Z,87.10
2022-07-29T03:23:18.999Z,88.30
2022-07-29T03:25:46.128Z,90.10
2022-07-29T03:28:12.932Z,90.40
2022-07-29T03:30:39.685Z,90.20
2022-07-29T03:33:13.403Z,90.10
2022-07-29T03:35:40.690Z,90.40
2022-07-29T03:38:07.632Z,90.50
2022-07-29T03:40:38.562Z,90.40
2022-07-29T03:43:08.694Z,90.30
2022-07-29T03:45:36.395Z,90.90
2022-07-29T03:48:09.578Z,90.90
2022-07-29T03:50:37.238Z,90.40
2022-07-29T03:53:04.294Z,90.70
2022-07-29T03:55:37.348Z,90.60
2022-07-29T03:58:04.617Z,90.40
2022-07-29T04:00:31.986Z,90.30
2022-07-29T04:02:59.083Z,90.50
2022-07-29T04:05:25.851Z,90.70
2022-07-29T04:07:52.555Z,90.90
2022-07-29T04:10:30.090Z,90.70
2022-07-29T04:12:58.357Z,91.10
2022-07-29T04:15:25.149Z,91.40
2022-07-29T04:17:51.851Z,91.50
2022-07-29T04:20:19.463Z,91.40
2022-07-29T04:22:46.219Z,90.50
2022-07-29T04:25:12.959Z,90.10
2022-07-29T04:27:59.666Z,89.80
2022-07-29T04:30:26.690Z,89.40
2022-07-29T04:32:53.472Z,87.80
2022-07-29T04:35:21.342Z,87.70
2022-07-29T04:37:48.224Z,87.10
2022-07-29T04:40:15.196Z,86.40
2022-07-29T04:42:46.466Z,85.10
2022-07-29T04:45:14.564Z,84.20
2022-07-29T04:47:41.902Z,84.20
2022-07-29T04:50:09.760Z,83.10
2022-07-29T04:52:36.755Z,83.20
2022-07-29T04:55:05.205Z,84.20
2022-07-29T04:57:31.966Z,84.20
2022-07-29T04:59:58.761Z,83.80
2022-07-29T05:02:25.574Z,81.40
2022-07-29T05:04:52.347Z,81.60
2022-07-29T05:07:19.087Z,82.40
2022-07-29T05:09:45.814Z,80.60
2022-07-29T05:12:12.990Z,81.40
2022-07-29T05:14:39.807Z,82.30
2022-07-29T05:17:06.779Z,82.30
2022-07-29T05:19:33.493Z,78.00
2022-07-29T05:22:06.577Z,75.80
2022-07-29T05:24:33.365Z,74.50
2022-07-29T05:27:00.307Z,75.50
2022-07-29T05:29:44.917Z,72.90
2022-07-29T05:32:15.477Z,71.20
2022-07-29T05:34:51.147Z,71.40
2022-07-29T05:37:21.797Z,70.30
2022-07-29T05:39:56.749Z,70.20
2022-07-29T05:42:25.469Z,69.80
2022-07-29T05:44:52.733Z,68.70
2022-07-29T05:47:19.706Z,68.50
2022-07-29T05:49:47.089Z,66.10
2022-07-29T05:52:16.894Z,66.90
2022-07-29T05:54:44.293Z,67.60
2022-07-29T05:57:21.932Z,64.70
2022-07-29T05:59:49.316Z,62.50
2022-07-29T06:02:17.328Z,60.60
2022-07-29T06:04:44.530Z,58.20
2022-07-29T06:07:12.334Z,55.60
2022-07-29T06:09:39.137Z,53.60
2022-07-29T06:12:06.327Z,52.10
2022-07-29T06:14:33.626Z,51.30
2022-07-29T06:17:00.401Z,51.40
2022-07-29T06:19:27.154Z,50.30
2022-07-29T06:21:54.239Z,49.80
2022-07-29T06:24:21.079Z,48.20
2022-07-29T06:26:48.070Z,46.30
2022-07-29T06:29:14.809Z,47.80
2022-07-29T06:31:41.543Z,47.20
2022-07-29T06:34:08.438Z,46.40
2022-07-29T06:36:37.899Z,46.20
2022-07-29T06:39:07.534Z,47.30
2022-07-29T06:41:34.964Z,47.50
2022-07-29T06:44:02.324Z,45.20
2022-07-29T06:46:29.878Z,46.20
2022-07-29T06:48:56.761Z,46.80
2022-07-29T06:51:24.202Z,45.00
2022-07-29T06:54:00.618Z,45.00
2022-07-29T06:56:38.980Z,44.90
2022-07-29T06:59:08.268Z,44.30
2022-07-29T07:01:36.188Z,43.70
2022-07-29T07:04:03.290Z,42.20
2022-07-29T07:06:30.103Z,43.80
2022-07-29T07:08:57.254Z,42.10
2022-07-29T07:11:24.038Z,41.20
2022-07-29T07:13:50.792Z,39.70
2022-07-29T07:16:17.695Z,38.80
2022-07-29T07:18:46.380Z,38.20
2022-07-29T07:21:19.107Z,37.50
2022-07-29T07:23:46.945Z,37.80
2022-07-29T07:26:13.700Z,38.40
2022-07-29T07:28:40.588Z,37.30
2022-07-29T07:31:07.388Z,36.00
2022-07-29T07:33:34.130Z,36.20
2022-07-29T07:36:01.025Z,37.10
2022-07-29T07:38:27.741Z,37.00
2022-07-29T07:40:54.509Z,35.70
2022-07-29T07:43:21.295Z,36.20
2022-07-29T07:45:48.137Z,34.40
2022-07-29T07:48:14.888Z,34.50
2022-07-29T07:50:41.767Z,32.00
2022-07-29T07:53:08.675Z,33.10
2022-07-29T07:56:08.163Z,31.90
2022-07-29T07:58:28.293Z,30.00
2022-07-29T08:00:55.066Z,31.60
2022-07-29T08:03:22.164Z,32.10
2022-07-29T08:05:49.297Z,31.50
2022-07-29T08:08:16.007Z,30.30
2022-07-29T08:10:56.311Z,30.00
2022-07-29T08:13:26.423Z,28.80
2022-07-29T08:15:59.521Z,28.60
2022-07-29T08:18:27.749Z,28.70
2022-07-29T08:20:54.783Z,29.40
2022-07-29T08:23:22.138Z,30.10
2022-07-29T08:25:50.335Z,30.80
2022-07-29T08:28:18.106Z,31.60
2022-07-29T08:30:45.035Z,32.60
2022-07-29T08:33:11.881Z,32.30
2022-07-29T08:35:40.070Z,31.90
2022-07-29T08:38:07.056Z,32.40
2022-07-29T08:40:33.866Z,32.80
2022-07-29T08:43:07.011Z,33.10
2022-07-29T08:45:51.196Z,32.80
2022-07-29T08:48:21.118Z,32.70
2022-07-29T08:50:50.019Z,32.90
2022-07-29T08:53:18.983Z,33.50
2022-07-29T08:55:47.825Z,34.10
2022-07-29T08:58:15.743Z,34.40
2022-07-29T09:00:46.322Z,34.50
2022-07-29T09:03:16.956Z,34.10
2022-07-29T09:05:47.845Z,35.20
2022-07-29T09:08:16.277Z,34.30
2022-07-29T09:10:43.468Z,34.40
2022-07-29T09:13:10.405Z,34.60
2022-07-29T09:15:37.225Z,34.30
2022-07-29T09:18:04.041Z,34.40
2022-07-29T09:20:50.766Z,34.40
2022-07-29T09:23:23.461Z,34.90
2022-07-29T09:25:51.594Z,34.30
2022-07-29T09:28:19.223Z,34.70
2022-07-29T09:30:57.878Z,35.40
2022-07-29T09:33:31.610Z,34.90
2022-07-29T09:36:05.919Z,34.70
2022-07-29T09:38:33.680Z,33.50
2022-07-29T09:41:05.771Z,32.90
2022-07-29T09:43:34.012Z,32.70
2022-07-29T09:46:13.958Z,33.40
2022-07-29T09:48:40.754Z,32.70
2022-07-29T09:51:25.573Z,31.30
2022-07-29T09:53:56.806Z,30.00
2022-07-29T09:56:43.205Z,29.70
2022-07-29T09:59:12.117Z,29.90
2022-07-29T10:01:38.936Z,29.30
2022-07-29T10:04:05.800Z,28.80
2022-07-29T10:06:32.660Z,28.00
2022-07-29T10:09:12.226Z,27.80
2022-07-29T10:11:48.929Z,27.30
2022-07-29T10:14:17.193Z,27.10
2022-07-29T10:16:44.387Z,26.70
2022-07-29T10:19:11.346Z,26.90
2022-07-29T10:21:40.765Z,27.00
2022-07-29T10:24:14.682Z,26.60
2022-07-29T10:26:42.410Z,26.90
2022-07-29T10:29:09.150Z,27.70
2022-07-29T10:32:00.229Z,28.00
2022-07-29T10:34:45.773Z,28.00
2022-07-29T10:37:25.452Z,28.10
2022-07-29T10:40:30.694Z,28.30
2022-07-29T10:43:03.926Z,27.60
2022-07-29T10:45:32.779Z,27.00
2022-07-29T10:48:09.839Z,27.60
2022-07-29T10:51:04.985Z,27.80
2022-07-29T10:53:54.052Z,27.60
2022-07-29T10:56:41.279Z,27.80
2022-07-29T10:59:23.578Z,28.40
2022-07-29T11:01:53.628Z,28.50
2022-07-29T11:04:45.847Z,28.70
2022-07-29T11:07:13.930Z,29.00
2022-07-29T11:09:42.049Z,30.00
2022-07-29T11:12:39.568Z,29.60
2022-07-29T11:15:09.104Z,30.10
2022-07-29T11:18:01.607Z,31.10
2022-07-29T11:20:36.559Z,31.40
2022-07-29T11:23:36.502Z,31.40
2022-07-29T11:26:26.733Z,32.40
2022-07-29T11:28:57.138Z,32.20
2022-07-29T11:31:43.146Z,33.90
2022-07-29T11:34:29.615Z,32.80
2022-07-29T11:37:12.459Z,32.70
2022-07-29T11:39:40.047Z,30.00
2022-07-29T11:45:42.562Z,30.30
2022-07-29T11:48:29.522Z,29.80
2022-07-29T11:50:53.450Z,28.60
2022-07-29T11:53:20.582Z,28.10
2022-07-29T11:55:55.426Z,27.90
2022-07-29T11:58:25.985Z,27.60
2022-07-29T12:00:55.545Z,27.40
2022-07-29T12:03:35.196Z,26.30
2022-07-29T12:06:14.852Z,26.20
2022-07-29T12:07:03.858Z,30.60
2022-07-29T12:08:44.441Z,25.30
2022-07-29T12:11:22.757Z,26.10
2022-07-29T12:13:51.717Z,24.70
2022-07-29T12:16:28.139Z,23.90
2022-07-29T12:19:02.291Z,24.30
2022-07-29T12:21:30.178Z,24.50
2022-07-29T12:24:05.941Z,24.50
2022-07-29T12:26:36.564Z,24.70
2022-07-29T12:29:04.344Z,25.50
2022-07-29T12:31:43.706Z,25.30
2022-07-29T12:34:13.532Z,24.90
2022-07-29T12:36:41.690Z,25.10
2022-07-29T12:39:10.058Z,25.10
2022-07-29T12:41:37.251Z,25.50
2022-07-29T12:44:04.295Z,25.70
2022-07-29T12:46:31.067Z,25.80
2022-07-29T12:48:58.363Z,25.70
2022-07-29T12:51:33.177Z,25.00
2022-07-29T12:54:11.733Z,25.10
2022-07-29T12:56:44.387Z,25.50
2022-07-29T12:59:22.732Z,25.60
2022-07-29T13:01:51.931Z,24.80
2022-07-29T13:04:32.221Z,24.70
2022-07-29T13:07:10.336Z,23.80
2022-07-29T13:09:42.648Z,23.00
2022-07-29T13:12:11.862Z,23.10
2022-07-29T13:14:46.121Z,23.20
2022-07-29T13:17:16.575Z,23.30
2022-07-29T13:19:44.578Z,23.70
2022-07-29T13:22:13.875Z,24.30
2022-07-29T13:24:51.435Z,24.60
2022-07-29T13:27:20.228Z,24.80
2022-07-29T13:29:47.550Z,25.00
2022-07-29T13:32:14.752Z,25.00
2022-07-29T13:34:41.813Z,25.20
2022-07-29T13:37:08.723Z,25.00
2022-07-29T13:39:35.513Z,24.60
2022-07-29T13:42:02.336Z,24.60
2022-07-29T13:44:29.206Z,24.70
2022-07-29T13:46:56.760Z,24.80
2022-07-29T13:49:23.745Z,25.00
2022-07-29T13:51:51.100Z,24.60
2022-07-29T13:54:18.049Z,24.50
2022-07-29T13:56:44.837Z,25.10
2022-07-29T13:59:13.443Z,24.50
2022-07-29T14:01:43.089Z,24.60
2022-07-29T14:04:10.990Z,24.70
2022-07-29T14:06:40.588Z,24.80
2022-07-29T14:09:09.505Z,25.40
2022-07-29T14:11:36.865Z,25.80
2022-07-29T14:14:03.621Z,25.60
2022-07-29T14:16:30.498Z,25.60
2022-07-29T14:18:57.301Z,25.90
2022-07-29T14:21:24.161Z,25.80
2022-07-29T14:23:53.098Z,25.40
2022-07-29T14:26:21.724Z,25.00
2022-07-29T14:28:51.397Z,25.30
2022-07-29T14:31:18.238Z,25.40
2022-07-29T14:33:46.282Z,22.40
2022-07-29T14:36:16.412Z,21.90
2022-07-29T14:38:43.436Z,22.30
2022-07-29T14:41:10.296Z,22.70
2022-07-29T14:43:37.061Z,22.70
2022-07-29T14:46:08.202Z,22.40
2022-07-29T14:48:36.042Z,23.10
2022-07-29T14:51:04.847Z,22.70
2022-07-29T14:53:32.721Z,23.20
2022-07-29T14:56:15.078Z,23.40
2022-07-29T14:58:51.732Z,23.70
2022-07-29T15:01:19.472Z,23.80
2022-07-29T15:03:46.757Z,24.20
2022-07-29T15:06:13.565Z,23.00
2022-07-29T15:08:40.359Z,23.10
2022-07-29T15:11:07.088Z,23.30
2022-07-29T15:13:34.875Z,23.70
2022-07-29T15:16:01.686Z,23.50
2022-07-29T15:18:28.430Z,24.00
2022-07-29T15:20:55.157Z,23.70
2022-07-29T15:23:21.915Z,24.00
2022-07-29T15:25:48.657Z,24.40
2022-07-29T15:28:15.459Z,24.20
2022-07-29T15:30:42.263Z,24.40
2022-07-29T15:33:10.429Z,24.80
2022-07-29T15:35:40.261Z,24.70
2022-07-29T15:38:08.212Z,24.80
2022-07-29T15:40:35.053Z,25.20
2022-07-29T15:43:06.766Z,25.40
2022-07-29T15:45:40.557Z,25.70
2022-07-29T15:48:08.626Z,27.00
2022-07-29T15:50:35.910Z,27.60
2022-07-29T15:53:03.154Z,27.50
2022-07-29T15:55:30.006Z,28.00
2022-07-29T15:58:00.440Z,29.20
2022-07-29T16:00:27.588Z,30.00
2022-07-29T16:02:54.366Z,31.70
2022-07-29T16:05:21.111Z,32.10
2022-07-29T16:07:47.846Z,31.90
2022-07-29T16:10:14.611Z,31.90
2022-07-29T16:12:41.876Z,32.60
2022-07-29T16:15:10.426Z,33.00
2022-07-29T16:17:38.902Z,33.50
2022-07-29T16:20:06.676Z,33.70
2022-07-29T16:22:33.488Z,32.70
2022-07-29T16:25:00.240Z,31.90
2022-07-29T16:27:35.447Z,31.30
2022-07-29T16:30:08.258Z,30.30
2022-07-29T16:32:35.160Z,28.80
2022-07-29T16:35:05.066Z,28.50
2022-07-29T16:37:35.473Z,30.70
2022-07-29T16:40:06.376Z,33.50
2022-07-29T16:42:46.619Z,36.20
2022-07-29T16:45:14.437Z,38.30
2022-07-29T16:47:41.188Z,40.60
2022-07-29T16:50:08.924Z,41.80
2022-07-29T16:52:36.104Z,43.70
2022-07-29T16:55:03.181Z,44.90
2022-07-29T16:57:29.916Z,47.80
2022-07-29T16:59:56.689Z,49.90
2022-07-29T17:02:23.669Z,51.60
2022-07-29T17:04:50.421Z,52.90
2022-07-29T17:07:17.333Z,55.40
2022-07-29T17:09:44.070Z,56.60
2022-07-29T17:12:10.862Z,58.00
2022-07-29T17:14:38.400Z,59.00
2022-07-29T17:17:13.891Z,61.60
2022-07-29T17:19:43.736Z,62.80
2022-07-29T17:22:17.223Z,63.90
2022-07-29T17:24:46.338Z,64.20
2022-07-29T17:27:14.019Z,66.10
2022-07-29T17:29:41.477Z,65.60
2022-07-29T17:32:09.315Z,66.60
2022-07-29T17:34:41.076Z,68.30
2022-07-29T17:37:10.663Z,67.80
2022-07-29T17:39:41.585Z,68.20
2022-07-29T17:42:10.473Z,71.10
2022-07-29T17:44:37.844Z,71.60
2022-07-29T17:47:05.792Z,74.00
2022-07-29T17:49:36.245Z,73.40
2022-07-29T17:52:04.752Z,75.50
2022-07-29T17:54:31.499Z,73.70
2022-07-29T17:56:58.471Z,72.80
2022-07-29T17:59:25.508Z,74.50
2022-07-29T18:01:53.213Z,73.50
2022-07-29T18:04:23.243Z,74.80
2022-07-29T18:06:50.042Z,75.90
2022-07-29T18:09:16.849Z,74.40
2022-07-29T18:11:44.481Z,72.60
2022-07-29T18:14:13.334Z,71.90
2022-07-29T18:16:40.595Z,70.60
2022-07-29T18:19:07.474Z,72.20
2022-07-29T18:21:43.555Z,72.00
2022-07-29T18:24:18.134Z,70.40
2022-07-29T18:26:44.884Z,70.80
2022-07-29T18:29:12.297Z,72.00
2022-07-29T18:31:41.089Z,72.50
2022-07-29T18:34:08.010Z,72.00
2022-07-29T18:36:34.742Z,71.40
2022-07-29T18:39:01.595Z,72.40
2022-07-29T18:41:28.329Z,74.90
2022-07-29T18:43:55.069Z,75.10
2022-07-29T18:46:21.807Z,76.80
2022-07-29T18:48:48.661Z,75.30
2022-07-29T18:51:15.538Z,75.50
2022-07-29T18:53:43.196Z,76.50
2022-07-29T18:56:09.926Z,76.30
2022-07-29T18:58:38.282Z,75.40
2022-07-29T19:01:05.824Z,75.20
2022-07-29T19:03:32.604Z,74.70
2022-07-29T19:05:59.343Z,74.90
2022-07-29T19:08:26.142Z,75.30
2022-07-29T19:10:53.380Z,76.10
2022-07-29T19:13:20.144Z,77.00
2022-07-29T19:15:47.225Z,77.90
2022-07-29T19:18:14.038Z,78.00
2022-07-29T19:20:41.967Z,78.50
2022-07-29T19:23:09.244Z,78.60
2022-07-29T19:25:36.108Z,78.80
2022-07-29T19:28:03.265Z,78.80
2022-07-29T19:30:29.979Z,78.20
2022-07-29T19:32:56.796Z,77.70
2022-07-29T19:35:31.527Z,78.40
2022-07-29T19:38:01.103Z,78.20
2022-07-29T19:40:29.123Z,79.70
2022-07-29T19:42:56.213Z,79.70
2022-07-29T19:45:25.095Z,79.60
2022-07-29T19:47:52.387Z,80.80
2022-07-29T19:50:19.335Z,81.80
2022-07-29T19:52:47.164Z,81.10
2022-07-29T19:55:15.446Z,80.10
2022-07-29T19:57:42.310Z,79.10
2022-07-29T20:00:11.859Z,78.70
2022-07-29T20:02:40.267Z,78.00
2022-07-29T20:05:08.038Z,78.30
2022-07-29T20:07:35.078Z,78.60
2022-07-29T20:10:02.030Z,78.10
2022-07-29T20:12:28.804Z,77.50
2022-07-29T20:14:55.667Z,76.90
2022-07-29T20:17:22.752Z,75.90
2022-07-29T20:19:50.669Z,77.00
2022-07-29T20:22:21.238Z,76.70
2022-07-29T20:24:48.753Z,76.50
2022-07-29T20:27:15.509Z,77.50
2022-07-29T20:29:42.520Z,77.00
2022-07-29T20:32:09.266Z,77.10
2022-07-29T20:34:36.064Z,77.60
2022-07-29T20:37:03.043Z,77.20
2022-07-29T20:39:30.421Z,77.80
2022-07-29T20:41:57.189Z,78.00
2022-07-29T20:44:24.427Z,79.80
2022-07-29T20:46:51.294Z,79.80
2022-07-29T20:49:18.115Z,80.10
2022-07-29T20:51:44.940Z,79.50
2022-07-29T20:54:12.237Z,78.80
2022-07-29T20:56:39.671Z,77.80
2022-07-29T20:59:06.544Z,78.00
2022-07-29T21:01:33.444Z,79.70
2022-07-29T21:04:01.332Z,78.20
2022-07-29T21:06:28.184Z,77.30
2022-07-29T21:08:57.843Z,77.10
2022-07-29T21:11:43.458Z,77.60
2022-07-29T21:14:27.663Z,78.00
2022-07-29T21:16:54.687Z,78.10
2022-07-29T21:19:21.415Z,79.00
2022-07-29T21:21:48.159Z,79.30
2022-07-29T21:24:14.915Z,81.70
2022-07-29T21:26:44.624Z,83.20
2022-07-29T21:29:14.207Z,83.80
2022-07-29T21:31:42.537Z,83.40
2022-07-29T21:34:09.619Z,83.10
2022-07-29T21:36:48.088Z,82.90
2022-07-29T21:39:15.265Z,83.40
2022-07-29T21:41:41.978Z,82.50
2022-07-29T21:44:08.981Z,82.20
2022-07-29T21:46:36.594Z,83.00
2022-07-29T21:49:03.613Z,84.60
2022-07-29T21:51:30.436Z,86.90
2022-07-29T21:53:57.189Z,87.10
2022-07-29T21:56:27.662Z,86.80
2022-07-29T21:58:54.949Z,88.80
2022-07-29T22:01:21.731Z,90.40
2022-07-29T22:03:48.629Z,90.00
2022-07-29T22:06:18.178Z,90.10
2022-07-29T22:08:45.759Z,90.00
2022-07-29T22:11:13.227Z,90.20
2022-07-29T22:13:40.065Z,90.40
2022-07-29T22:16:07.146Z,91.00
2022-07-29T22:18:33.969Z,91.70
2022-07-29T22:21:00.740Z,92.00
2022-07-29T22:23:27.520Z,92.00
2022-07-29T22:25:54.237Z,92.00
2022-07-29T22:28:21.221Z,91.70
2022-07-29T22:30:48.004Z,90.90
2022-07-29T22:33:17.339Z,90.90
2022-07-29T22:35:45.318Z,90.90
2022-07-29T22:38:17.390Z,90.80
2022-07-29T22:40:44.134Z,90.30
2022-07-29T22:43:10.922Z,90.30
2022-07-29T22:45:37.720Z,89.00
2022-07-29T22:48:05.075Z,87.50
2022-07-29T22:50:31.865Z,86.10
2022-07-29T22:52:58.553Z,85.10
2022-07-29T22:55:25.304Z,85.90
2022-07-29T22:57:52.032Z,85.40
2022-07-29T23:00:19.053Z,85.90
2022-07-29T23:02:45.769Z,84.10
2022-07-29T23:05:15.845Z,83.80
2022-07-29T23:07:43.029Z,83.80
2022-07-29T23:10:10.282Z,82.60
2022-07-29T23:12:37.127Z,81.30
2022-07-29T23:15:07.897Z,80.30
2022-07-29T23:17:36.216Z,79.30
2022-07-29T23:20:05.386Z,81.50
2022-07-29T23:22:32.078Z,80.00
2022-07-29T23:24:58.798Z,79.80
2022-07-29T23:27:25.547Z,79.50
2022-07-29T23:29:52.310Z,80.50
2022-07-29T23:32:19.005Z,80.60
2022-07-29T23:34:45.746Z,79.20
2022-07-29T23:37:12.538Z,78.50
2022-07-29T23:39:39.318Z,77.80
2022-07-29T23:42:06.120Z,78.70
2022-07-29T23:44:32.918Z,77.90
2022-07-29T23:46:59.863Z,77.60
2022-07-29T23:49:26.922Z,77.90
2022-07-29T23:51:53.644Z,77.40
2022-07-29T23:54:20.435Z,78.20
2022-07-29T23:56:47.152Z,78.90
2022-07-29T23:59:13.914Z,79.00
